createdAt,value
2022-08-10T00:00:00.480Z,16.52
2022-08-10T00:01:00.472Z,16.55
2022-08-10T00:02:00.555Z,16.51
2022-08-10T00:03:00.533Z,16.49
2022-08-10T00:04:00.452Z,16.51
2022-08-10T00:05:00.462Z,16.47
2022-08-10T00:06:00.813Z,16.44
2022-08-10T00:07:00.443Z,16.46
2022-08-10T00:08:00.500Z,16.47
2022-08-10T00:09:00.572Z,16.46
2022-08-10T00:10:00.426Z,16.44
2022-08-10T00:11:00.432Z,16.43
2022-08-10T00:12:00.422Z,16.42
2022-08-10T00:13:00.412Z,16.40
2022-08-10T00:14:00.623Z,16.37
2022-08-10T00:15:00.511Z,16.37
2022-08-10T00:16:00.368Z,16.33
2022-08-10T00:17:00.370Z,16.32
2022-08-10T00:18:00.352Z,16.33
2022-08-10T00:19:00.363Z,16.28
2022-08-10T00:20:03.269Z,16.26
2022-08-10T00:21:00.334Z,16.25
2022-08-10T00:22:00.330Z,16.18
2022-08-10T00:23:00.322Z,16.17
2022-08-10T00:24:00.834Z,16.18
2022-08-10T00:25:00.318Z,16.16
2022-08-10T00:26:00.327Z,16.14
2022-08-10T00:27:49.982Z,16.10
2022-08-10T00:28:03.099Z,16.09
2022-08-10T00:29:00.398Z,16.13
2022-08-10T00:30:00.281Z,16.16
2022-08-10T00:31:00.269Z,16.13
2022-08-10T00:32:00.270Z,16.14
2022-08-10T00:33:00.419Z,16.14
2022-08-10T00:34:00.285Z,16.16
2022-08-10T00:35:00.269Z,16.14
2022-08-10T00:36:00.568Z,16.18
2022-08-10T00:37:00.228Z,16.18
2022-08-10T00:38:00.682Z,16.17
2022-08-10T00:39:00.740Z,16.18
2022-08-10T00:40:00.737Z,16.21
2022-08-10T00:41:00.197Z,16.16
2022-08-10T00:42:01.942Z,16.14
2022-08-10T00:43:00.178Z,16.09
2022-08-10T00:44:00.188Z,16.08
2022-08-10T00:45:00.982Z,16.05
2022-08-10T00:46:00.529Z,16.06
2022-08-10T00:47:00.375Z,16.08
2022-08-10T00:48:00.840Z,16.08
2022-08-10T00:49:00.593Z,16.06
2022-08-10T00:50:00.176Z,16.08
2022-08-10T00:51:00.134Z,16.06
2022-08-10T00:52:00.378Z,16.08
2022-08-10T00:53:00.117Z,16.10
2022-08-10T00:54:00.507Z,16.06
2022-08-10T00:55:00.121Z,16.13
2022-08-10T00:57:12.372Z,16.09
2022-08-10T00:57:15.988Z,16.06
2022-08-10T00:58:00.086Z,16.08
2022-08-10T00:59:00.216Z,16.06
2022-08-10T01:00:00.694Z,16.08
2022-08-10T01:01:00.486Z,16.10
2022-08-10T01:02:11.188Z,16.10
2022-08-10T01:03:00.126Z,16.10
2022-08-10T01:04:57.774Z,16.17
2022-08-10T01:05:01.903Z,16.14
2022-08-10T01:06:00.026Z,16.16
2022-08-10T01:07:00.037Z,16.13
2022-08-10T01:08:00.097Z,16.13
2022-08-10T01:09:00.027Z,16.14
2022-08-10T01:10:00.109Z,16.06
2022-08-10T01:11:00.145Z,16.06
2022-08-10T01:12:37.408Z,16.08
2022-08-10T01:13:00.006Z,16.03
2022-08-10T01:13:59.983Z,16.03
2022-08-10T01:15:00.297Z,16.05
2022-08-10T01:15:59.946Z,16.03
2022-08-10T01:17:00.285Z,16.03
2022-08-10T01:17:59.946Z,15.99
2022-08-10T01:18:59.975Z,15.98
2022-08-10T01:19:59.936Z,15.93
2022-08-10T01:20:59.926Z,15.88
2022-08-10T01:21:59.922Z,15.85
2022-08-10T01:22:59.914Z,15.81
2022-08-10T01:24:00.173Z,15.81
2022-08-10T01:25:00.163Z,15.81
2022-08-10T01:26:12.329Z,15.80
2022-08-10T01:26:59.882Z,15.83
2022-08-10T01:28:00.019Z,15.76
2022-08-10T01:29:00.004Z,15.70
2022-08-10T01:29:59.888Z,15.68
2022-08-10T01:30:59.864Z,15.68
2022-08-10T01:31:59.985Z,15.60
2022-08-10T01:32:59.842Z,15.56
2022-08-10T01:34:02.647Z,15.51
2022-08-10T01:34:59.892Z,15.47
2022-08-10T01:35:59.817Z,15.47
2022-08-10T01:36:59.824Z,15.48
2022-08-10T01:37:59.813Z,15.45
2022-08-10T01:38:59.801Z,15.47
2022-08-10T01:39:59.813Z,15.48
2022-08-10T01:41:00.510Z,15.45
2022-08-10T01:41:59.798Z,15.45
2022-08-10T01:43:07.776Z,15.47
2022-08-10T01:43:59.807Z,15.48
2022-08-10T01:44:59.793Z,15.48
2022-08-10T01:46:01.724Z,15.48
2022-08-10T01:46:59.753Z,15.48
2022-08-10T01:47:59.921Z,15.43
2022-08-10T01:48:59.953Z,15.41
2022-08-10T01:49:59.743Z,15.36
2022-08-10T01:51:00.618Z,15.33
2022-08-10T01:52:00.371Z,15.35
2022-08-10T01:52:59.703Z,15.27
2022-08-10T01:54:00.202Z,15.25
2022-08-10T01:55:00.251Z,15.23
2022-08-10T01:55:59.681Z,15.19
2022-08-10T01:56:59.669Z,15.17
2022-08-10T01:58:00.201Z,15.14
2022-08-10T01:59:00.430Z,15.10
2022-08-10T02:00:02.309Z,15.05
2022-08-10T02:01:00.118Z,14.97
2022-08-10T02:01:59.638Z,14.96
2022-08-10T02:02:59.888Z,14.95
2022-08-10T02:04:04.522Z,14.89
2022-08-10T02:04:59.634Z,14.83
2022-08-10T02:05:59.599Z,14.79
2022-08-10T02:06:59.608Z,14.83
2022-08-10T02:07:59.619Z,14.85
2022-08-10T02:09:06.777Z,14.82
2022-08-10T02:09:59.674Z,14.87
2022-08-10T02:10:59.586Z,14.89
2022-08-10T02:12:07.299Z,14.90
2022-08-10T02:12:59.633Z,14.92
2022-08-10T02:13:59.600Z,14.90
2022-08-10T02:14:59.607Z,14.93
2022-08-10T02:16:01.500Z,14.95
2022-08-10T02:17:00.040Z,14.90
2022-08-10T02:18:02.112Z,14.92
2022-08-10T02:18:59.527Z,14.90
2022-08-10T02:19:59.876Z,14.87
2022-08-10T02:21:00.080Z,14.79
2022-08-10T02:22:35.221Z,14.74
2022-08-10T02:22:59.497Z,14.70
2022-08-10T02:24:00.439Z,14.67
2022-08-10T02:24:59.486Z,14.64
2022-08-10T02:25:59.697Z,14.66
2022-08-10T02:26:59.910Z,14.63
2022-08-10T02:27:59.608Z,14.63
2022-08-10T02:28:59.458Z,14.59
2022-08-10T02:29:59.453Z,14.61
2022-08-10T02:30:59.695Z,14.58
2022-08-10T02:31:59.994Z,14.56
2022-08-10T02:32:59.425Z,14.58
2022-08-10T02:33:59.599Z,14.58
2022-08-10T02:34:59.412Z,14.58
2022-08-10T02:35:59.437Z,14.55
2022-08-10T02:36:59.406Z,14.55
2022-08-10T02:37:59.465Z,14.49
2022-08-10T02:39:01.043Z,14.51
2022-08-10T02:39:59.806Z,14.49
2022-08-10T02:42:18.119Z,14.49
2022-08-10T02:45:01.110Z,14.49
2022-08-10T02:45:18.410Z,14.49
2022-08-10T02:45:20.242Z,14.53
2022-08-10T02:45:20.850Z,14.51
2022-08-10T02:45:59.364Z,14.49
2022-08-10T02:46:59.375Z,14.49
2022-08-10T02:47:59.563Z,14.46
2022-08-10T02:48:59.342Z,14.44
2022-08-10T02:50:00.284Z,14.41
2022-08-10T02:50:59.323Z,14.38
2022-08-10T02:52:06.584Z,14.34
2022-08-10T02:52:59.347Z,14.33
2022-08-10T02:53:59.292Z,14.30
2022-08-10T02:54:59.290Z,14.30
2022-08-10T02:55:59.291Z,14.27
2022-08-10T02:56:59.278Z,14.22
2022-08-10T02:58:15.344Z,14.22
2022-08-10T02:58:59.341Z,14.21
2022-08-10T02:59:59.243Z,14.18
2022-08-10T03:00:59.315Z,14.19
2022-08-10T03:01:59.503Z,14.21
2022-08-10T03:02:59.519Z,14.21
2022-08-10T03:03:59.221Z,14.22
2022-08-10T03:04:59.220Z,14.22
2022-08-10T03:05:59.210Z,14.26
2022-08-10T03:06:59.202Z,14.21
2022-08-10T03:07:59.233Z,14.19
2022-08-10T03:08:59.200Z,14.19
2022-08-10T03:09:59.170Z,14.18
2022-08-10T03:10:59.177Z,14.18
2022-08-10T03:12:35.660Z,14.21
2022-08-10T03:12:59.149Z,14.16
2022-08-10T03:13:59.731Z,14.19
2022-08-10T03:14:59.141Z,14.19
2022-08-10T03:15:59.151Z,14.16
2022-08-10T03:16:59.141Z,14.09
2022-08-10T03:17:59.202Z,14.13
2022-08-10T03:18:59.116Z,14.13
2022-08-10T03:20:34.807Z,14.12
2022-08-10T03:20:59.148Z,14.12
2022-08-10T03:21:59.108Z,14.15
2022-08-10T03:22:59.097Z,14.16
2022-08-10T03:23:59.088Z,14.12
2022-08-10T03:24:59.078Z,14.11
2022-08-10T03:25:59.730Z,14.11
2022-08-10T03:26:59.055Z,14.08
2022-08-10T03:27:59.072Z,14.08
2022-08-10T03:28:59.066Z,14.08
2022-08-10T03:30:28.477Z,14.05
2022-08-10T03:30:59.601Z,14.08
2022-08-10T03:31:59.028Z,14.08
2022-08-10T03:32:59.030Z,14.12
2022-08-10T03:33:59.014Z,14.08
2022-08-10T03:34:59.006Z,14.08
2022-08-10T03:36:43.072Z,14.11
2022-08-10T03:36:59.006Z,14.12
2022-08-10T03:37:59.738Z,14.09
2022-08-10T03:38:58.976Z,14.08
2022-08-10T03:39:58.976Z,14.04
2022-08-10T03:40:58.991Z,14.03
2022-08-10T03:41:58.985Z,14.00
2022-08-10T03:42:59.234Z,14.00
2022-08-10T03:43:58.947Z,13.96
2022-08-10T03:44:58.945Z,13.94
2022-08-10T03:45:58.934Z,13.91
2022-08-10T03:46:58.944Z,13.90
2022-08-10T03:47:59.583Z,13.96
2022-08-10T03:48:59.187Z,13.97
2022-08-10T03:49:58.904Z,13.98
2022-08-10T03:50:58.928Z,14.05
2022-08-10T03:51:58.921Z,14.01
2022-08-10T03:52:58.884Z,14.04
2022-08-10T03:54:05.854Z,14.09
2022-08-10T03:54:58.873Z,14.12
2022-08-10T03:56:28.289Z,14.15
2022-08-10T03:56:58.875Z,14.16
2022-08-10T03:57:58.853Z,14.19
2022-08-10T03:58:59.426Z,14.19
2022-08-10T03:59:58.831Z,14.19
2022-08-10T04:00:58.856Z,14.19
2022-08-10T04:02:45.529Z,14.16
2022-08-10T04:02:59.415Z,14.16
2022-08-10T04:04:11.583Z,14.13
2022-08-10T04:04:58.822Z,14.11
2022-08-10T04:05:58.792Z,14.08
2022-08-10T04:06:59.393Z,14.05
2022-08-10T04:07:58.778Z,14.01
2022-08-10T04:08:58.783Z,14.01
2022-08-10T04:09:59.015Z,14.04
2022-08-10T04:10:58.941Z,13.97
2022-08-10T04:11:58.980Z,13.96
2022-08-10T04:12:58.929Z,13.93
2022-08-10T04:13:58.752Z,13.88
2022-08-10T04:14:58.750Z,13.91
2022-08-10T04:15:58.759Z,13.88
2022-08-10T04:16:58.740Z,13.82
2022-08-10T04:18:05.892Z,13.78
2022-08-10T04:18:58.719Z,13.72
2022-08-10T04:19:58.719Z,13.68
2022-08-10T04:20:58.718Z,13.64
2022-08-10T04:21:59.459Z,13.63
2022-08-10T04:22:58.689Z,13.63
2022-08-10T04:23:58.676Z,13.63
2022-08-10T04:24:59.138Z,13.60
2022-08-10T04:25:58.668Z,13.64
2022-08-10T04:26:58.858Z,13.71
2022-08-10T04:27:58.659Z,13.65
2022-08-10T04:28:58.669Z,13.67
2022-08-10T04:29:58.679Z,13.68
2022-08-10T04:30:58.729Z,13.71
2022-08-10T04:31:59.619Z,13.73
2022-08-10T04:32:58.621Z,13.75
2022-08-10T04:33:58.727Z,13.76
2022-08-10T04:34:59.588Z,13.76
2022-08-10T04:35:59.494Z,13.79
2022-08-10T04:36:58.617Z,13.80
2022-08-10T04:37:58.577Z,13.82
2022-08-10T04:38:58.588Z,13.80
2022-08-10T04:39:58.906Z,13.90
2022-08-10T04:40:58.571Z,13.97
2022-08-10T04:41:58.597Z,14.05
2022-08-10T04:43:01.389Z,14.16
2022-08-10T04:43:58.604Z,14.22
2022-08-10T04:44:58.535Z,14.33
2022-08-10T04:45:58.527Z,14.41
2022-08-10T04:46:59.450Z,14.45
2022-08-10T04:48:03.051Z,14.51
2022-08-10T04:49:01.343Z,14.53
2022-08-10T04:49:58.505Z,14.52
2022-08-10T04:50:59.697Z,14.51
2022-08-10T04:51:58.904Z,14.52
2022-08-10T04:52:58.852Z,14.52
2022-08-10T04:54:03.991Z,14.52
2022-08-10T04:54:58.471Z,14.49
2022-08-10T04:55:58.453Z,14.51
2022-08-10T04:56:58.455Z,14.53
2022-08-10T04:57:58.453Z,14.61
2022-08-10T04:58:58.434Z,14.64
2022-08-10T04:59:58.426Z,14.70
2022-08-10T05:00:58.448Z,14.71
2022-08-10T05:02:28.023Z,14.73
2022-08-10T05:02:58.480Z,14.73
2022-08-10T05:04:34.699Z,14.77
2022-08-10T05:04:59.522Z,14.78
2022-08-10T05:05:58.382Z,14.77
2022-08-10T05:06:58.394Z,14.79
2022-08-10T05:07:59.184Z,14.83
2022-08-10T05:08:58.605Z,14.87
2022-08-10T05:10:01.474Z,14.87
2022-08-10T05:10:58.362Z,14.92
2022-08-10T05:11:58.421Z,14.93
2022-08-10T05:12:58.362Z,14.97
2022-08-10T05:13:58.351Z,14.99
2022-08-10T05:14:58.356Z,15.03
2022-08-10T05:15:58.331Z,15.07
2022-08-10T05:16:59.111Z,15.11
2022-08-10T05:18:08.227Z,15.20
2022-08-10T05:18:58.344Z,15.27
2022-08-10T05:20:03.277Z,15.33
2022-08-10T05:20:58.298Z,15.35
2022-08-10T05:22:04.228Z,15.44
2022-08-10T05:22:58.358Z,15.47
2022-08-10T05:23:58.270Z,15.56
2022-08-10T05:24:58.269Z,15.65
2022-08-10T05:25:58.357Z,15.77
2022-08-10T05:27:00.615Z,15.85
2022-08-10T05:28:00.957Z,15.93
2022-08-10T05:28:58.300Z,15.96
2022-08-10T05:30:02.515Z,16.05
2022-08-10T05:30:58.499Z,16.13
2022-08-10T05:31:58.209Z,16.25
2022-08-10T05:33:01.686Z,16.32
2022-08-10T05:33:58.238Z,16.34
2022-08-10T05:34:58.246Z,16.39
2022-08-10T05:35:58.463Z,16.49
2022-08-10T05:36:58.438Z,16.58
2022-08-10T05:38:10.301Z,16.65
2022-08-10T05:38:58.187Z,16.69
2022-08-10T05:39:58.217Z,16.69
2022-08-10T05:40:58.192Z,16.80
2022-08-10T05:41:58.138Z,16.88
2022-08-10T05:42:58.285Z,16.98
2022-08-10T05:43:58.768Z,17.09
2022-08-10T05:44:58.126Z,17.16
2022-08-10T05:46:17.521Z,17.24
2022-08-10T05:46:58.914Z,17.30
2022-08-10T05:48:41.732Z,17.39
2022-08-10T05:49:01.181Z,17.43
2022-08-10T05:49:58.084Z,17.56
2022-08-10T05:50:58.089Z,17.65
2022-08-10T05:51:58.069Z,17.69
2022-08-10T05:52:58.074Z,17.76
2022-08-10T05:54:01.059Z,17.87
2022-08-10T05:55:02.603Z,17.91
2022-08-10T05:55:58.045Z,17.99
2022-08-10T05:56:58.745Z,18.09
2022-08-10T05:57:58.455Z,18.15
2022-08-10T05:58:58.057Z,18.18
2022-08-10T06:00:33.383Z,18.23
2022-08-10T06:00:58.074Z,18.30
2022-08-10T06:02:33.316Z,18.31
2022-08-10T06:02:58.006Z,18.36
2022-08-10T06:03:58.087Z,18.46
2022-08-10T06:04:58.154Z,18.56
2022-08-10T06:05:57.984Z,18.60
2022-08-10T06:06:57.976Z,18.63
2022-08-10T06:07:57.965Z,18.66
2022-08-10T06:08:57.987Z,18.67
2022-08-10T06:09:59.165Z,18.70
2022-08-10T06:12:24.685Z,18.78
2022-08-10T06:12:27.317Z,18.82
2022-08-10T06:12:58.851Z,18.86
2022-08-10T06:14:12.935Z,18.93
2022-08-10T06:14:59.554Z,19.00
2022-08-10T06:15:57.913Z,19.12
2022-08-10T06:16:58.125Z,19.19
2022-08-10T06:18:01.573Z,19.20
2022-08-10T06:18:57.963Z,19.27
2022-08-10T06:19:57.883Z,19.32
2022-08-10T06:20:57.953Z,19.38
2022-08-10T06:22:01.363Z,19.49
2022-08-10T06:22:58.572Z,19.53
2022-08-10T06:23:57.992Z,19.50
2022-08-10T06:25:27.290Z,19.59
2022-08-10T06:26:10.670Z,19.57
2022-08-10T06:26:57.854Z,19.60
2022-08-10T06:27:57.841Z,19.67
2022-08-10T06:29:03.015Z,19.70
2022-08-10T06:29:57.842Z,19.71
2022-08-10T06:30:58.092Z,19.70
2022-08-10T06:31:57.815Z,19.68
2022-08-10T06:32:57.816Z,19.68
2022-08-10T06:33:57.829Z,19.70
2022-08-10T06:34:57.852Z,19.78
2022-08-10T06:35:57.785Z,19.86
2022-08-10T06:36:57.811Z,19.84
2022-08-10T06:37:57.771Z,19.82
2022-08-10T06:39:16.692Z,19.87
2022-08-10T06:39:57.991Z,19.94
2022-08-10T06:40:57.971Z,19.97
2022-08-10T06:42:16.328Z,19.99
2022-08-10T06:42:58.083Z,20.02
2022-08-10T06:43:57.791Z,20.11
2022-08-10T06:44:57.764Z,20.15
2022-08-10T06:46:07.777Z,20.27
2022-08-10T06:46:57.711Z,20.33
2022-08-10T06:47:58.315Z,20.36
2022-08-10T06:48:57.881Z,20.42
2022-08-10T06:49:59.808Z,20.50
2022-08-10T06:50:59.140Z,20.56
2022-08-10T06:51:57.775Z,20.67
2022-08-10T06:52:58.261Z,20.79
2022-08-10T06:53:58.550Z,20.89
2022-08-10T06:54:57.860Z,20.95
2022-08-10T06:55:57.740Z,20.98
2022-08-10T06:57:17.365Z,21.03
2022-08-10T06:58:00.118Z,21.13
2022-08-10T06:58:57.629Z,21.19
2022-08-10T06:59:58.469Z,21.32
2022-08-10T07:00:57.669Z,21.40
2022-08-10T07:01:57.610Z,21.40
2022-08-10T07:02:57.621Z,21.44
2022-08-10T07:03:57.929Z,21.50
2022-08-10T07:04:57.625Z,21.53
2022-08-10T07:05:57.580Z,21.56
2022-08-10T07:06:57.578Z,21.56
2022-08-10T07:07:57.578Z,21.60
2022-08-10T07:08:57.721Z,21.48
2022-08-10T07:09:57.560Z,21.50
2022-08-10T07:10:57.560Z,21.53
2022-08-10T07:11:57.969Z,21.51
2022-08-10T07:12:57.538Z,21.56
2022-08-10T07:14:16.213Z,21.59
2022-08-10T07:14:57.548Z,21.63
2022-08-10T07:16:00.160Z,21.74
2022-08-10T07:16:57.511Z,21.88
2022-08-10T07:17:57.501Z,21.94
2022-08-10T07:18:57.490Z,21.96
2022-08-10T07:19:57.500Z,22.01
2022-08-10T07:20:57.486Z,22.13
2022-08-10T07:21:58.159Z,22.18
2022-08-10T07:23:01.206Z,22.30
2022-08-10T07:24:00.640Z,22.31
2022-08-10T07:24:57.481Z,22.41
2022-08-10T07:25:58.139Z,22.40
2022-08-10T07:26:57.454Z,22.18
2022-08-10T07:27:58.619Z,22.23
2022-08-10T07:28:57.429Z,22.36
2022-08-10T07:29:57.441Z,22.49
2022-08-10T07:30:57.417Z,22.56
2022-08-10T07:31:57.934Z,22.66
2022-08-10T07:32:57.811Z,22.66
2022-08-10T07:33:57.447Z,22.68
2022-08-10T07:34:57.414Z,22.66
2022-08-10T07:35:57.439Z,22.66
2022-08-10T07:36:57.388Z,22.74
2022-08-10T07:37:57.358Z,22.83
2022-08-10T07:38:57.358Z,23.01
2022-08-10T07:39:58.475Z,23.23
2022-08-10T07:40:57.399Z,23.36
2022-08-10T07:41:57.349Z,23.13
2022-08-10T07:42:57.331Z,23.11
2022-08-10T07:43:57.341Z,23.11
2022-08-10T07:44:57.335Z,23.11
2022-08-10T07:45:57.469Z,23.25
2022-08-10T07:46:57.307Z,23.36
2022-08-10T07:47:57.312Z,23.45
2022-08-10T07:48:57.290Z,23.63
2022-08-10T07:49:57.287Z,23.76
2022-08-10T07:50:57.299Z,23.84
2022-08-10T07:51:57.293Z,23.92
2022-08-10T07:52:57.269Z,23.88
2022-08-10T07:53:57.258Z,23.89
2022-08-10T07:54:57.257Z,23.89
2022-08-10T07:56:03.662Z,23.92
2022-08-10T07:56:57.267Z,23.88
2022-08-10T07:57:57.248Z,23.78
2022-08-10T07:58:57.226Z,23.74
2022-08-10T07:59:57.218Z,23.86
2022-08-10T08:00:57.239Z,23.97
2022-08-10T08:01:57.243Z,24.18
2022-08-10T08:02:57.211Z,24.28
2022-08-10T08:04:05.758Z,24.33
2022-08-10T08:04:57.817Z,24.36
2022-08-10T08:06:02.621Z,24.44
2022-08-10T08:06:57.179Z,24.60
2022-08-10T08:07:57.167Z,24.78
2022-08-10T08:08:57.207Z,24.90
2022-08-10T08:10:00.968Z,25.03
2022-08-10T08:10:57.156Z,25.14
2022-08-10T08:11:57.146Z,25.15
2022-08-10T08:12:57.138Z,25.30
2022-08-10T08:13:57.143Z,25.19
2022-08-10T08:14:57.134Z,25.30
2022-08-10T08:16:19.613Z,25.34
2022-08-10T08:16:57.107Z,25.45
2022-08-10T08:17:57.478Z,25.36
2022-08-10T08:19:57.099Z,25.56
2022-08-10T08:20:57.087Z,25.64
2022-08-10T08:24:06.310Z,25.77
2022-08-10T08:24:07.807Z,25.85
2022-08-10T08:24:10.685Z,25.90
2022-08-10T08:24:57.058Z,26.05
2022-08-10T08:25:57.116Z,26.12
2022-08-10T08:26:57.049Z,26.27
2022-08-10T08:27:57.036Z,26.34
2022-08-10T08:28:57.027Z,26.33
2022-08-10T08:29:57.046Z,26.31
2022-08-10T08:30:57.197Z,26.33
2022-08-10T08:32:01.707Z,26.38
2022-08-10T08:32:57.005Z,26.31
2022-08-10T08:33:56.998Z,26.15
2022-08-10T08:34:56.986Z,26.04
2022-08-10T08:35:57.132Z,26.00
2022-08-10T08:36:59.581Z,26.12
2022-08-10T08:38:33.027Z,26.34
2022-08-10T08:38:56.965Z,26.53
2022-08-10T08:39:56.958Z,26.65
2022-08-10T08:40:56.977Z,26.63
2022-08-10T08:41:56.956Z,26.67
2022-08-10T08:42:56.927Z,26.70
2022-08-10T08:43:56.934Z,26.80
2022-08-10T08:44:56.926Z,26.65
2022-08-10T08:46:01.434Z,26.39
2022-08-10T08:46:59.180Z,25.98
2022-08-10T08:48:05.472Z,25.53
2022-08-10T08:48:56.898Z,25.52
2022-08-10T08:50:08.648Z,25.83
2022-08-10T08:50:57.837Z,25.78
2022-08-10T08:52:07.390Z,25.64
2022-08-10T08:52:56.867Z,25.73
2022-08-10T08:54:02.818Z,25.93
2022-08-10T08:54:56.848Z,25.92
2022-08-10T08:56:05.654Z,26.08
2022-08-10T08:56:56.857Z,26.34
2022-08-10T08:57:56.837Z,26.61
2022-08-10T08:58:56.827Z,26.86
2022-08-10T08:59:56.828Z,27.04
2022-08-10T09:00:56.827Z,27.12
2022-08-10T09:01:56.842Z,27.32
2022-08-10T09:02:56.808Z,27.23
2022-08-10T09:03:56.807Z,26.94
2022-08-10T09:04:56.787Z,27.07
2022-08-10T09:05:59.565Z,27.25
2022-08-10T09:06:56.777Z,27.47
2022-08-10T09:08:02.194Z,27.66
2022-08-10T09:08:56.772Z,27.66
2022-08-10T09:09:56.762Z,27.64
2022-08-10T09:10:56.756Z,27.73
2022-08-10T09:11:56.758Z,27.90
2022-08-10T09:12:56.737Z,27.79
2022-08-10T09:13:56.820Z,27.50
2022-08-10T09:14:56.716Z,27.49
2022-08-10T09:16:00.679Z,27.42
2022-08-10T09:16:56.728Z,27.32
2022-08-10T09:17:56.706Z,27.17
2022-08-10T09:18:56.725Z,27.41
2022-08-10T09:19:56.694Z,27.68
2022-08-10T09:20:56.676Z,27.64
2022-08-10T09:22:13.215Z,27.42
2022-08-10T09:22:57.730Z,27.47
2022-08-10T09:24:05.531Z,27.41
2022-08-10T09:24:56.649Z,27.69
2022-08-10T09:25:56.897Z,27.97
2022-08-10T09:26:56.642Z,28.19
2022-08-10T09:27:56.691Z,28.24
2022-08-10T09:29:12.538Z,27.87
2022-08-10T09:29:56.628Z,28.00
2022-08-10T09:31:20.865Z,27.88
2022-08-10T09:36:14.575Z,28.00
2022-08-10T09:36:16.445Z,28.19
2022-08-10T09:36:19.532Z,28.16
2022-08-10T09:36:23.503Z,27.79
2022-08-10T09:36:25.387Z,28.20
2022-08-10T09:36:56.589Z,27.52
2022-08-10T09:38:01.798Z,27.34
2022-08-10T09:38:56.585Z,27.60
2022-08-10T09:40:55.867Z,27.90
2022-08-10T09:41:02.975Z,28.17
2022-08-10T09:41:56.564Z,28.40
2022-08-10T09:43:21.529Z,28.64
2022-08-10T09:43:56.580Z,28.79
2022-08-10T09:44:57.992Z,28.87
2022-08-10T09:45:56.517Z,28.81
2022-08-10T09:46:56.519Z,28.93
2022-08-10T09:48:01.237Z,29.12
2022-08-10T09:48:56.557Z,28.96
2022-08-10T09:50:00.894Z,28.91
2022-08-10T09:51:34.901Z,28.80
2022-08-10T09:51:56.487Z,28.77
2022-08-10T09:52:58.637Z,28.86
2022-08-10T09:53:56.476Z,29.04
2022-08-10T09:54:56.458Z,29.15
2022-08-10T09:56:18.316Z,29.12
2022-08-10T09:57:07.146Z,29.13
2022-08-10T09:57:56.944Z,29.17
2022-08-10T09:59:26.714Z,29.33
2022-08-10T10:00:00.002Z,29.12
2022-08-10T10:00:57.088Z,29.09
2022-08-10T10:02:02.998Z,29.10
2022-08-10T10:02:56.499Z,29.09
2022-08-10T10:03:56.446Z,29.10
2022-08-10T10:04:56.441Z,28.89
2022-08-10T10:05:56.389Z,29.02
2022-08-10T10:06:56.377Z,29.12
2022-08-10T10:07:56.386Z,29.28
2022-08-10T10:08:58.453Z,29.40
2022-08-10T10:09:56.369Z,29.50
2022-08-10T10:10:56.349Z,29.47
2022-08-10T10:11:56.359Z,29.62
2022-08-10T10:12:56.367Z,29.80
2022-08-10T10:14:02.634Z,29.95
2022-08-10T10:14:56.336Z,30.08
2022-08-10T10:15:57.317Z,30.21
2022-08-10T10:16:57.248Z,30.26
2022-08-10T10:17:56.317Z,30.43
2022-08-10T10:18:56.347Z,30.60
2022-08-10T10:19:56.397Z,30.59
2022-08-10T10:20:56.303Z,30.67
2022-08-10T10:21:56.831Z,30.80
2022-08-10T10:22:56.276Z,30.93
2022-08-10T10:24:22.299Z,30.95
2022-08-10T10:24:56.280Z,30.46
2022-08-10T10:26:01.333Z,30.48
2022-08-10T10:26:56.272Z,30.45
2022-08-10T10:27:56.274Z,30.53
2022-08-10T10:29:59.354Z,30.55
2022-08-10T10:30:56.219Z,30.59
2022-08-10T10:31:56.225Z,30.67
2022-08-10T10:32:58.340Z,30.90
2022-08-10T10:33:56.226Z,30.96
2022-08-10T10:34:56.199Z,31.04
2022-08-10T10:35:56.198Z,30.85
2022-08-10T10:36:56.197Z,30.89
2022-08-10T10:38:01.860Z,30.77
2022-08-10T10:38:56.179Z,29.92
2022-08-10T10:39:56.260Z,29.73
2022-08-10T10:40:56.185Z,29.55
2022-08-10T10:42:04.523Z,29.55
2022-08-10T10:42:56.149Z,29.81
2022-08-10T10:43:56.891Z,30.10
2022-08-10T10:44:56.149Z,30.07
2022-08-10T10:45:56.137Z,29.93
2022-08-10T10:46:56.128Z,30.00
2022-08-10T10:47:56.157Z,30.11
2022-08-10T10:48:56.277Z,30.29
2022-08-10T10:49:56.108Z,30.48
2022-08-10T10:50:56.098Z,30.70
2022-08-10T10:51:56.096Z,30.70
2022-08-10T10:52:56.110Z,31.04
2022-08-10T10:53:56.077Z,31.46
2022-08-10T10:54:56.069Z,32.08
2022-08-10T10:56:14.551Z,32.42
2022-08-10T10:56:56.058Z,32.58
2022-08-10T10:57:58.771Z,32.54
2022-08-10T10:58:56.045Z,32.83
2022-08-10T10:59:57.645Z,33.07
2022-08-10T11:00:56.077Z,33.36
2022-08-10T11:01:56.030Z,33.24
2022-08-10T11:02:56.038Z,32.32
2022-08-10T11:03:56.017Z,32.45
2022-08-10T11:04:57.470Z,32.83
2022-08-10T11:05:56.164Z,33.27
2022-08-10T11:06:55.998Z,33.60
2022-08-10T11:07:56.830Z,33.84
2022-08-10T11:08:56.014Z,33.81
2022-08-10T11:10:07.018Z,33.79
2022-08-10T11:10:56.444Z,33.89
2022-08-10T11:12:00.347Z,34.20
2022-08-10T11:12:55.979Z,33.98
2022-08-10T11:14:24.597Z,34.22
2022-08-10T11:14:55.946Z,33.06
2022-08-10T11:15:55.950Z,32.99
2022-08-10T11:16:58.575Z,33.47
2022-08-10T11:17:56.072Z,33.33
2022-08-10T11:18:55.953Z,33.29
2022-08-10T11:20:02.054Z,33.73
2022-08-10T11:20:55.917Z,34.19
2022-08-10T11:21:55.911Z,34.50
2022-08-10T11:22:55.920Z,34.95
2022-08-10T11:24:48.748Z,35.16
2022-08-10T11:24:56.369Z,35.19
2022-08-10T11:25:55.880Z,34.86
2022-08-10T11:26:55.880Z,34.99
2022-08-10T11:27:55.889Z,34.48
2022-08-10T11:28:55.868Z,34.52
2022-08-10T11:29:55.894Z,34.52
2022-08-10T11:30:55.850Z,34.67
2022-08-10T11:31:55.859Z,34.82
2022-08-10T11:32:55.850Z,35.14
2022-08-10T11:35:10.163Z,34.78
2022-08-10T11:35:55.831Z,34.44
2022-08-10T11:36:55.831Z,34.75
2022-08-10T11:38:31.469Z,35.12
2022-08-10T11:39:13.473Z,35.28
2022-08-10T11:39:55.876Z,35.32
2022-08-10T11:40:55.799Z,35.10
2022-08-10T11:42:11.751Z,34.35
2022-08-10T11:42:55.799Z,33.73
2022-08-10T11:43:55.779Z,33.84
2022-08-10T11:44:55.802Z,34.30
2022-08-10T11:45:55.807Z,34.45
2022-08-10T11:46:55.769Z,34.64
2022-08-10T11:47:55.803Z,34.87
2022-08-10T11:48:57.873Z,35.26
2022-08-10T11:49:55.748Z,35.04
2022-08-10T11:50:55.751Z,35.10
2022-08-10T11:51:55.739Z,35.07
2022-08-10T11:52:55.759Z,34.79
2022-08-10T11:53:55.748Z,34.20
2022-08-10T11:54:55.719Z,34.42
2022-08-10T11:55:55.719Z,34.82
2022-08-10T11:57:01.775Z,34.99
2022-08-10T11:57:55.985Z,34.70
2022-08-10T11:58:55.710Z,34.79
2022-08-10T11:59:57.888Z,34.83
2022-08-10T12:00:55.700Z,35.01
2022-08-10T12:01:55.711Z,35.09
2022-08-10T12:02:55.772Z,35.32
2022-08-10T12:03:55.669Z,35.13
2022-08-10T12:04:56.310Z,35.23
2022-08-10T12:05:55.678Z,35.57
2022-08-10T12:06:56.596Z,35.48
2022-08-10T12:10:08.932Z,35.81
2022-08-10T12:10:08.983Z,35.77
2022-08-10T12:10:10.939Z,35.70
2022-08-10T12:10:55.639Z,35.46
2022-08-10T12:11:55.638Z,35.29
2022-08-10T12:12:55.632Z,35.12
2022-08-10T12:14:19.631Z,34.86
2022-08-10T12:14:55.627Z,34.91
2022-08-10T12:15:55.613Z,34.82
2022-08-10T12:16:55.614Z,34.62
2022-08-10T12:17:55.609Z,34.76
2022-08-10T12:18:55.650Z,34.83
2022-08-10T12:20:01.373Z,35.10
2022-08-10T12:20:55.608Z,35.38
2022-08-10T12:21:55.579Z,35.72
2022-08-10T12:22:55.579Z,35.39
2022-08-10T12:24:03.086Z,35.24
2022-08-10T12:24:55.582Z,34.70
2022-08-10T12:25:58.460Z,34.66
2022-08-10T12:26:55.558Z,34.73
2022-08-10T12:27:56.030Z,34.57
2022-08-10T12:28:55.570Z,34.13
2022-08-10T12:29:55.532Z,34.01
2022-08-10T12:30:55.537Z,34.00
2022-08-10T12:31:55.519Z,33.85
2022-08-10T12:32:55.533Z,34.10
2022-08-10T12:34:02.565Z,33.52
2022-08-10T12:34:55.518Z,33.39
2022-08-10T12:36:17.025Z,33.58
2022-08-10T12:36:55.659Z,33.48
2022-08-10T12:37:55.489Z,32.95
2022-08-10T12:38:55.499Z,32.92
2022-08-10T12:40:06.925Z,33.04
2022-08-10T12:40:56.407Z,33.29
2022-08-10T12:41:55.469Z,33.30
2022-08-10T12:43:01.527Z,33.01
2022-08-10T12:44:07.187Z,32.85
2022-08-10T12:44:55.500Z,32.95
2022-08-10T12:45:55.449Z,32.94
2022-08-10T12:46:55.449Z,33.01
2022-08-10T12:47:55.441Z,33.03
2022-08-10T12:48:55.861Z,32.88
2022-08-10T12:50:29.729Z,32.75
2022-08-10T12:50:55.440Z,32.94
2022-08-10T12:51:55.419Z,32.87
2022-08-10T12:52:55.429Z,32.90
2022-08-10T12:53:55.602Z,32.98
2022-08-10T12:54:55.410Z,32.72